sensor_id;sensor_type;location;lat;lon;timestamp;pressure;altitude;pressure_sealevel;temperature;humidity
60974;BME280;46846;51.528;5.076;2023-03-18T00:00:15;100253.78;;;11.10;78.27
60974;BME280;46846;51.528;5.076;2023-03-18T00:02:42;100247.53;;;11.11;78.00
60974;BME280;46846;51.528;5.076;2023-03-18T00:05:08;100252.78;;;11.13;78.03
60974;BME280;46846;51.528;5.076;2023-03-18T00:07:35;100253.75;;;11.12;78.07
60974;BME280;46846;51.528;5.076;2023-03-18T00:10:02;100260.00;;;11.11;78.31
60974;BME280;46846;51.528;5.076;2023-03-18T00:12:27;100257.34;;;11.11;77.91
60974;BME280;46846;51.528;5.076;2023-03-18T00:14:53;100256.47;;;11.10;78.23
60974;BME280;46846;51.528;5.076;2023-03-18T00:17:18;100262.94;;;11.04;79.17
60974;BME280;46846;51.528;5.076;2023-03-18T00:19:44;100254.28;;;10.99;78.75
60974;BME280;46846;51.528;5.076;2023-03-18T00:22:09;100258.63;;;11.02;78.22
60974;BME280;46846;51.528;5.076;2023-03-18T00:24:35;100250.84;;;10.97;79.14
60974;BME280;46846;51.528;5.076;2023-03-18T00:27:01;100260.50;;;11.00;78.56
60974;BME280;46846;51.528;5.076;2023-03-18T00:29:26;100257.81;;;11.00;78.55
60974;BME280;46846;51.528;5.076;2023-03-18T00:31:51;100258.97;;;10.94;78.91
60974;BME280;46846;51.528;5.076;2023-03-18T00:34:17;100263.56;;;10.90;79.04
60974;BME280;46846;51.528;5.076;2023-03-18T00:36:42;100268.81;;;10.92;78.99
60974;BME280;46846;51.528;5.076;2023-03-18T00:39:10;100273.28;;;10.91;78.38
60974;BME280;46846;51.528;5.076;2023-03-18T00:41:37;100269.75;;;10.91;78.37
60974;BME280;46846;51.528;5.076;2023-03-18T00:44:03;100272.41;;;10.91;78.50
60974;BME280;46846;51.528;5.076;2023-03-18T00:46:29;100277.94;;;10.86;79.22
60974;BME280;46846;51.528;5.076;2023-03-18T00:48:57;100275.22;;;10.88;78.91
60974;BME280;46846;51.528;5.076;2023-03-18T00:51:26;100269.91;;;10.88;78.48
60974;BME280;46846;51.528;5.076;2023-03-18T00:53:54;100275.16;;;10.89;78.51
60974;BME280;46846;51.528;5.076;2023-03-18T00:56:22;100269.91;;;10.88;78.73
60974;BME280;46846;51.528;5.076;2023-03-18T00:58:50;100276.22;;;10.85;78.62
60974;BME280;46846;51.528;5.076;2023-03-18T01:01:17;100278.81;;;10.87;78.35
60974;BME280;46846;51.528;5.076;2023-03-18T01:03:43;100273.56;;;10.85;78.60
60974;BME280;46846;51.528;5.076;2023-03-18T01:06:10;100271.78;;;10.86;78.46
60974;BME280;46846;51.528;5.076;2023-03-18T01:08:37;100270.03;;;10.85;78.70
60974;BME280;46846;51.528;5.076;2023-03-18T01:11:04;100269.19;;;10.84;78.41
60974;BME280;46846;51.528;5.076;2023-03-18T01:13:29;100270.97;;;10.84;78.63
60974;BME280;46846;51.528;5.076;2023-03-18T01:15:55;100265.72;;;10.82;78.29
60974;BME280;46846;51.528;5.076;2023-03-18T01:18:22;100271.09;;;10.80;78.30
60974;BME280;46846;51.528;5.076;2023-03-18T01:20:48;100275.75;;;10.75;78.70
60974;BME280;46846;51.528;5.076;2023-03-18T01:23:14;100269.66;;;10.73;78.51
60974;BME280;46846;51.528;5.076;2023-03-18T01:25:39;100268.03;;;10.69;78.44
60974;BME280;46846;51.528;5.076;2023-03-18T01:28:05;100270.06;;;10.64;79.04
60974;BME280;46846;51.528;5.076;2023-03-18T01:30:30;100262.16;;;10.62;79.26
60974;BME280;46846;51.528;5.076;2023-03-18T01:32:56;100268.19;;;10.66;78.55
60974;BME280;46846;51.528;5.076;2023-03-18T01:35:22;100260.41;;;10.61;78.86
60974;BME280;46846;51.528;5.076;2023-03-18T01:37:47;100260.47;;;10.60;78.54
60974;BME280;46846;51.528;5.076;2023-03-18T01:40:14;100253.44;;;10.59;78.88
60974;BME280;46846;51.528;5.076;2023-03-18T01:42:40;100262.19;;;10.61;78.76
60974;BME280;46846;51.528;5.076;2023-03-18T01:45:13;100263.06;;;10.61;78.67
60974;BME280;46846;51.528;5.076;2023-03-18T01:47:44;100261.25;;;10.62;78.57
60974;BME280;46846;51.528;5.076;2023-03-18T01:50:13;100262.34;;;10.58;78.95
60974;BME280;46846;51.528;5.076;2023-03-18T01:52:39;100267.72;;;10.56;78.82
60974;BME280;46846;51.528;5.076;2023-03-18T01:55:09;100271.53;;;10.50;79.24
60974;BME280;46846;51.528;5.076;2023-03-18T01:57:36;100273.41;;;10.48;79.07
60974;BME280;46846;51.528;5.076;2023-03-18T02:00:03;100269.81;;;10.49;78.98
60974;BME280;46846;51.528;5.076;2023-03-18T02:02:29;100269.72;;;10.51;79.36
60974;BME280;46846;51.528;5.076;2023-03-18T02:04:59;100265.53;;;10.45;79.01
60974;BME280;46846;51.528;5.076;2023-03-18T02:07:29;100271.53;;;10.50;79.25
60974;BME280;46846;51.528;5.076;2023-03-18T02:10:02;100273.41;;;10.48;79.17
60974;BME280;46846;51.528;5.076;2023-03-18T02:12:31;100269.81;;;10.49;79.11
60974;BME280;46846;51.528;5.076;2023-03-18T02:15:00;100275.91;;;10.51;79.12
60974;BME280;46846;51.528;5.076;2023-03-18T02:17:29;100263.66;;;10.47;79.27
60974;BME280;46846;51.528;5.076;2023-03-18T02:20:14;100271.59;;;10.49;78.83
60974;BME280;46846;51.528;5.076;2023-03-18T02:22:48;100272.47;;;10.49;78.89
60974;BME280;46846;51.528;5.076;2023-03-18T02:28:04;100281.22;;;10.51;78.83
60974;BME280;46846;51.528;5.076;2023-03-18T02:30:39;100280.44;;;10.49;79.07
60974;BME280;46846;51.528;5.076;2023-03-18T02:33:06;100288.28;;;10.52;78.59
60974;BME280;46846;51.528;5.076;2023-03-18T02:35:34;100278.78;;;10.47;78.70
60974;BME280;46846;51.528;5.076;2023-03-18T02:38:00;100289.69;;;10.39;78.99
60974;BME280;46846;51.528;5.076;2023-03-18T02:40:29;100283.44;;;10.40;79.03
60974;BME280;46846;51.528;5.076;2023-03-18T02:42:56;100292.28;;;10.40;78.93
60974;BME280;46846;51.528;5.076;2023-03-18T02:45:41;100292.56;;;10.34;79.23
60974;BME280;46846;51.528;5.076;2023-03-18T02:48:11;100296.09;;;10.35;79.19
60974;BME280;46846;51.528;5.076;2023-03-18T02:50:40;100290.03;;;10.31;79.33
60974;BME280;46846;51.528;5.076;2023-03-18T02:53:05;100298.22;;;10.26;79.45
60974;BME280;46846;51.528;5.076;2023-03-18T02:55:30;100302.59;;;10.28;79.23
60974;BME280;46846;51.528;5.076;2023-03-18T02:57:56;100302.59;;;10.28;79.23
60974;BME280;46846;51.528;5.076;2023-03-18T03:00:21;100301.13;;;10.20;79.40
60974;BME280;46846;51.528;5.076;2023-03-18T03:02:46;100312.56;;;10.22;79.52
60974;BME280;46846;51.528;5.076;2023-03-18T03:05:12;100311.03;;;10.17;79.80
60974;BME280;46846;51.528;5.076;2023-03-18T03:07:37;100314.41;;;10.20;79.25
60974;BME280;46846;51.528;5.076;2023-03-18T03:10:04;100316.28;;;10.18;79.76
60974;BME280;46846;51.528;5.076;2023-03-18T03:12:29;100319.72;;;10.20;79.40
60974;BME280;46846;51.528;5.076;2023-03-18T03:14:55;100319.84;;;10.17;79.63
60974;BME280;46846;51.528;5.076;2023-03-18T03:17:21;100323.31;;;10.19;79.33
60974;BME280;46846;51.528;5.076;2023-03-18T03:19:46;100323.44;;;10.16;79.67
60974;BME280;46846;51.528;5.076;2023-03-18T03:22:12;100328.00;;;10.12;79.56
60974;BME280;46846;51.528;5.076;2023-03-18T03:24:37;100335.97;;;10.12;79.59
60974;BME280;46846;51.528;5.076;2023-03-18T03:27:03;100330.84;;;10.08;79.83
60974;BME280;46846;51.528;5.076;2023-03-18T03:29:29;100331.56;;;10.13;79.53
60974;BME280;46846;51.528;5.076;2023-03-18T03:31:54;100333.72;;;10.03;79.77
60974;BME280;46846;51.528;5.076;2023-03-18T03:34:19;100323.81;;;10.07;79.75
60974;BME280;46846;51.528;5.076;2023-03-18T03:36:45;100330.31;;;9.99;79.79
60974;BME280;46846;51.528;5.076;2023-03-18T03:39:10;100330.31;;;9.99;79.83
60974;BME280;46846;51.528;5.076;2023-03-18T03:41:36;100331.00;;;10.05;79.75
60974;BME280;46846;51.528;5.076;2023-03-18T03:44:01;100329.31;;;10.02;79.56
60974;BME280;46846;51.528;5.076;2023-03-18T03:46:27;100330.31;;;9.99;79.78
60974;BME280;46846;51.528;5.076;2023-03-18T03:48:52;100330.06;;;10.06;79.60
60974;BME280;46846;51.528;5.076;2023-03-18T03:51:18;100335.63;;;9.99;79.66
60974;BME280;46846;51.528;5.076;2023-03-18T03:53:43;100336.50;;;10.00;79.88
60974;BME280;46846;51.528;5.076;2023-03-18T03:56:10;100326.66;;;10.02;79.66
60974;BME280;46846;51.528;5.076;2023-03-18T03:58:36;100333.91;;;9.98;79.67
60974;BME280;46846;51.528;5.076;2023-03-18T04:01:01;100334.84;;;9.97;79.88
60974;BME280;46846;51.528;5.076;2023-03-18T04:03:29;100334.88;;;9.96;80.11
60974;BME280;46846;51.528;5.076;2023-03-18T04:05:54;100337.72;;;9.91;79.81
60974;BME280;46846;51.528;5.076;2023-03-18T04:08:20;100333.00;;;9.98;79.94
60974;BME280;46846;51.528;5.076;2023-03-18T04:10:46;100333.16;;;9.95;80.12
60974;BME280;46846;51.528;5.076;2023-03-18T04:13:11;100340.38;;;9.91;79.92
60974;BME280;46846;51.528;5.076;2023-03-18T04:15:37;100340.38;;;9.91;80.05
60974;BME280;46846;51.528;5.076;2023-03-18T04:18:02;100337.72;;;9.91;80.12
60974;BME280;46846;51.528;5.076;2023-03-18T04:20:37;100337.69;;;9.93;79.57
60974;BME280;46846;51.528;5.076;2023-03-18T04:23:02;100349.09;;;9.95;79.48
60974;BME280;46846;51.528;5.076;2023-03-18T04:25:28;100346.63;;;9.90;79.72
60974;BME280;46846;51.528;5.076;2023-03-18T04:27:53;100358.28;;;9.86;79.87
60974;BME280;46846;51.528;5.076;2023-03-18T04:30:19;100360.91;;;9.88;79.85
60974;BME280;46846;51.528;5.076;2023-03-18T04:32:47;100368.91;;;9.86;79.81
60974;BME280;46846;51.528;5.076;2023-03-18T04:35:14;100369.06;;;9.83;80.27
60974;BME280;46846;51.528;5.076;2023-03-18T04:37:40;100372.50;;;9.85;80.29
60974;BME280;46846;51.528;5.076;2023-03-18T04:40:06;100366.50;;;9.80;80.29
60974;BME280;46846;51.528;5.076;2023-03-18T04:42:31;100364.84;;;9.77;80.19
60974;BME280;46846;51.528;5.076;2023-03-18T04:44:56;100361.31;;;9.77;80.19
60974;BME280;46846;51.528;5.076;2023-03-18T04:47:22;100373.84;;;9.73;80.48
60974;BME280;46846;51.528;5.076;2023-03-18T04:49:48;100372.88;;;9.76;80.25
60974;BME280;46846;51.528;5.076;2023-03-18T04:52:13;100368.59;;;9.71;80.26
60974;BME280;46846;51.528;5.076;2023-03-18T04:54:39;100363.22;;;9.73;80.23
60974;BME280;46846;51.528;5.076;2023-03-18T04:57:04;100376.75;;;9.67;80.50
60974;BME280;46846;51.528;5.076;2023-03-18T04:59:30;100376.69;;;9.68;80.49
60974;BME280;46846;51.528;5.076;2023-03-18T05:01:55;100380.31;;;9.66;80.87
60974;BME280;46846;51.528;5.076;2023-03-18T05:04:21;100378.56;;;9.66;80.59
60974;BME280;46846;51.528;5.076;2023-03-18T05:06:46;100377.63;;;9.67;80.36
60974;BME280;46846;51.528;5.076;2023-03-18T05:09:11;100374.25;;;9.62;80.68
60974;BME280;46846;51.528;5.076;2023-03-18T05:11:37;100372.41;;;9.64;80.85
60974;BME280;46846;51.528;5.076;2023-03-18T05:14:02;100375.06;;;9.64;80.51
60974;BME280;46846;51.528;5.076;2023-03-18T05:16:28;100371.47;;;9.65;80.50
60974;BME280;46846;51.528;5.076;2023-03-18T05:18:54;100375.06;;;9.64;80.52
60974;BME280;46846;51.528;5.076;2023-03-18T05:21:19;100371.47;;;9.65;80.48
60974;BME280;46846;51.528;5.076;2023-03-18T05:23:45;100374.22;;;9.64;80.63
60974;BME280;46846;51.528;5.076;2023-03-18T05:26:10;100369.56;;;9.69;80.54
60974;BME280;46846;51.528;5.076;2023-03-18T05:28:36;100368.03;;;9.63;80.66
60974;BME280;46846;51.528;5.076;2023-03-18T05:31:01;100368.03;;;9.63;80.70
60974;BME280;46846;51.528;5.076;2023-03-18T05:33:28;100369.69;;;9.66;80.51
60974;BME280;46846;51.528;5.076;2023-03-18T05:35:53;100382.38;;;9.59;80.74
60974;BME280;46846;51.528;5.076;2023-03-18T05:38:19;100375.16;;;9.63;80.61
60974;BME280;46846;51.528;5.076;2023-03-18T05:40:44;100376.91;;;9.62;80.50
60974;BME280;46846;51.528;5.076;2023-03-18T05:43:10;100376.91;;;9.62;80.57
60974;BME280;46846;51.528;5.076;2023-03-18T05:45:36;100386.63;;;9.63;80.66
60974;BME280;46846;51.528;5.076;2023-03-18T05:48:02;100382.09;;;9.65;80.59
60974;BME280;46846;51.528;5.076;2023-03-18T05:50:35;100389.41;;;9.60;80.46
60974;BME280;46846;51.528;5.076;2023-03-18T05:53:02;100399.91;;;9.63;80.51
60974;BME280;46846;51.528;5.076;2023-03-18T05:55:28;100396.31;;;9.64;80.69
60974;BME280;46846;51.528;5.076;2023-03-18T05:57:55;100399.06;;;9.63;80.49
60974;BME280;46846;51.528;5.076;2023-03-18T06:00:21;100403.34;;;9.65;80.46
60974;BME280;46846;51.528;5.076;2023-03-18T06:02:46;100405.34;;;9.60;80.54
60974;BME280;46846;51.528;5.076;2023-03-18T06:05:13;100399.91;;;9.63;80.42
60974;BME280;46846;51.528;5.076;2023-03-18T06:07:38;100400.06;;;9.58;80.45
60974;BME280;46846;51.528;5.076;2023-03-18T06:10:04;100407.06;;;9.61;80.40
60974;BME280;46846;51.528;5.076;2023-03-18T06:12:29;100405.34;;;9.60;80.56
60974;BME280;46846;51.528;5.076;2023-03-18T06:14:55;100409.03;;;9.56;80.52
60974;BME280;46846;51.528;5.076;2023-03-18T06:17:20;100416.19;;;9.54;80.53
60974;BME280;46846;51.528;5.076;2023-03-18T06:19:46;100415.47;;;9.49;80.64
60974;BME280;46846;51.528;5.076;2023-03-18T06:22:12;100418.13;;;9.49;80.38
60974;BME280;46846;51.528;5.076;2023-03-18T06:24:39;100411.06;;;9.49;80.72
60974;BME280;46846;51.528;5.076;2023-03-18T06:27:04;100413.75;;;9.48;80.65
60974;BME280;46846;51.528;5.076;2023-03-18T06:29:30;100409.25;;;9.50;80.39
60974;BME280;46846;51.528;5.076;2023-03-18T06:31:55;100412.91;;;9.47;80.53
60974;BME280;46846;51.528;5.076;2023-03-18T06:34:21;100415.44;;;9.50;80.39
60974;BME280;46846;51.528;5.076;2023-03-18T06:36:46;100415.69;;;9.42;80.51
60974;BME280;46846;51.528;5.076;2023-03-18T06:39:12;100423.66;;;9.42;80.49
60974;BME280;46846;51.528;5.076;2023-03-18T06:41:38;100427.03;;;9.48;80.42
60974;BME280;46846;51.528;5.076;2023-03-18T06:44:03;100431.63;;;9.42;80.45
60974;BME280;46846;51.528;5.076;2023-03-18T06:46:29;100429.88;;;9.43;80.56
60974;BME280;46846;51.528;5.076;2023-03-18T06:48:55;100434.38;;;9.41;80.44
60974;BME280;46846;51.528;5.076;2023-03-18T06:51:20;100444.91;;;9.42;80.48
60974;BME280;46846;51.528;5.076;2023-03-18T06:53:46;100438.84;;;9.39;80.19
60974;BME280;46846;51.528;5.076;2023-03-18T06:56:11;100440.75;;;9.35;80.52
60974;BME280;46846;51.528;5.076;2023-03-18T06:58:40;100439.91;;;9.35;80.59
60974;BME280;46846;51.528;5.076;2023-03-18T07:01:05;100446.13;;;9.34;80.59
60974;BME280;46846;51.528;5.076;2023-03-18T07:03:32;100451.31;;;9.37;80.51
60974;BME280;46846;51.528;5.076;2023-03-18T07:05:57;100447.91;;;9.33;80.47
60974;BME280;46846;51.528;5.076;2023-03-18T07:08:23;100452.50;;;9.28;80.47
60974;BME280;46846;51.528;5.076;2023-03-18T07:10:50;100453.25;;;9.32;80.59
60974;BME280;46846;51.528;5.076;2023-03-18T07:13:16;100451.50;;;9.32;80.62
60974;BME280;46846;51.528;5.076;2023-03-18T07:15:43;100455.84;;;9.35;80.59
60974;BME280;46846;51.528;5.076;2023-03-18T07:18:09;100463.06;;;9.29;80.28
60974;BME280;46846;51.528;5.076;2023-03-18T07:20:34;100458.69;;;9.28;80.08
60974;BME280;46846;51.528;5.076;2023-03-18T07:23:01;100461.31;;;9.30;80.28
60974;BME280;46846;51.528;5.076;2023-03-18T07:25:27;100467.47;;;9.30;80.42
60974;BME280;46846;51.528;5.076;2023-03-18T07:27:54;100466.69;;;9.27;80.21
60974;BME280;46846;51.528;5.076;2023-03-18T07:30:19;100475.91;;;9.16;80.81
60974;BME280;46846;51.528;5.076;2023-03-18T07:32:45;100476.94;;;9.12;80.66
60974;BME280;46846;51.528;5.076;2023-03-18T07:35:10;100476.84;;;9.15;80.69
60974;BME280;46846;51.528;5.076;2023-03-18T07:37:39;100478.56;;;9.16;80.66
60974;BME280;46846;51.528;5.076;2023-03-18T07:40:05;100480.44;;;9.14;80.88
60974;BME280;46846;51.528;5.076;2023-03-18T07:42:30;100482.97;;;9.18;80.86
60974;BME280;46846;51.528;5.076;2023-03-18T07:44:56;100489.34;;;9.12;80.58
60974;BME280;46846;51.528;5.076;2023-03-18T07:47:22;100486.66;;;9.13;80.69
60974;BME280;46846;51.528;5.076;2023-03-18T07:49:50;100480.50;;;9.11;80.68
60974;BME280;46846;51.528;5.076;2023-03-18T07:52:16;100483.94;;;9.15;80.60
60974;BME280;46846;51.528;5.076;2023-03-18T07:54:42;100484.81;;;9.15;80.55
60974;BME280;46846;51.528;5.076;2023-03-18T07:57:07;100479.50;;;9.15;80.76
60974;BME280;46846;51.528;5.076;2023-03-18T07:59:34;100478.78;;;9.10;80.50
60974;BME280;46846;51.528;5.076;2023-03-18T08:02:00;100480.34;;;9.16;80.54
60974;BME280;46846;51.528;5.076;2023-03-18T08:04:26;100481.13;;;9.20;80.58
60974;BME280;46846;51.528;5.076;2023-03-18T08:06:52;100481.13;;;9.20;80.46
60974;BME280;46846;51.528;5.076;2023-03-18T08:09:19;100479.38;;;9.19;80.56
60974;BME280;46846;51.528;5.076;2023-03-18T08:11:45;100479.38;;;9.19;80.32
60974;BME280;46846;51.528;5.076;2023-03-18T08:14:10;100478.56;;;9.16;80.45
60974;BME280;46846;51.528;5.076;2023-03-18T08:16:36;100471.41;;;9.19;80.64
60974;BME280;46846;51.528;5.076;2023-03-18T08:19:01;100473.88;;;9.25;80.47
60974;BME280;46846;51.528;5.076;2023-03-18T08:21:27;100472.13;;;9.24;80.15
60974;BME280;46846;51.528;5.076;2023-03-18T08:23:54;100476.69;;;9.20;80.32
60974;BME280;46846;51.528;5.076;2023-03-18T08:26:20;100482.53;;;9.30;80.41
60974;BME280;46846;51.528;5.076;2023-03-18T08:28:46;100482.63;;;9.27;80.22
60974;BME280;46846;51.528;5.076;2023-03-18T08:31:11;100486.25;;;9.24;80.15
60974;BME280;46846;51.528;5.076;2023-03-18T08:33:38;100484.50;;;9.25;80.13
60974;BME280;46846;51.528;5.076;2023-03-18T08:36:04;100489.69;;;9.28;80.28
60974;BME280;46846;51.528;5.076;2023-03-18T08:38:30;100485.13;;;9.32;80.70
60974;BME280;46846;51.528;5.076;2023-03-18T08:40:55;100492.28;;;9.29;80.29
60974;BME280;46846;51.528;5.076;2023-03-18T08:43:22;100492.34;;;9.28;80.59
60974;BME280;46846;51.528;5.076;2023-03-18T08:45:52;100494.91;;;9.31;80.64
60974;BME280;46846;51.528;5.076;2023-03-18T08:48:18;100497.22;;;9.40;80.47
60974;BME280;46846;51.528;5.076;2023-03-18T08:50:44;100495.31;;;9.44;80.24
60974;BME280;46846;51.528;5.076;2023-03-18T08:53:11;100499.47;;;9.53;80.47
60974;BME280;46846;51.528;5.076;2023-03-18T08:55:37;100502.78;;;9.58;80.54
60974;BME280;46846;51.528;5.076;2023-03-18T08:58:05;100502.66;;;9.63;80.63
60974;BME280;46846;51.528;5.076;2023-03-18T09:00:31;100505.31;;;9.63;80.41
60974;BME280;46846;51.528;5.076;2023-03-18T09:02:57;100510.75;;;9.58;80.35
60974;BME280;46846;51.528;5.076;2023-03-18T09:05:22;100511.84;;;9.52;80.41
60974;BME280;46846;51.528;5.076;2023-03-18T09:07:48;100508.19;;;9.56;80.20
60974;BME280;46846;51.528;5.076;2023-03-18T09:10:13;100509.03;;;9.57;80.50
60974;BME280;46846;51.528;5.076;2023-03-18T09:12:42;100513.50;;;9.56;80.53
60974;BME280;46846;51.528;5.076;2023-03-18T09:15:09;100518.72;;;9.58;80.60
60974;BME280;46846;51.528;5.076;2023-03-18T09:17:38;100506.97;;;9.65;80.54
60974;BME280;46846;51.528;5.076;2023-03-18T09:20:05;100512.19;;;9.68;80.37
60974;BME280;46846;51.528;5.076;2023-03-18T09:22:31;100500.47;;;9.74;80.50
60974;BME280;46846;51.528;5.076;2023-03-18T09:24:57;100500.50;;;9.73;80.54
60974;BME280;46846;51.528;5.076;2023-03-18T09:27:22;100512.03;;;9.73;80.35
60974;BME280;46846;51.528;5.076;2023-03-18T09:29:48;100504.00;;;9.75;80.56
60974;BME280;46846;51.528;5.076;2023-03-18T09:32:13;100510.91;;;9.79;80.34
60974;BME280;46846;51.528;5.076;2023-03-18T09:34:40;100508.09;;;9.83;80.56
60974;BME280;46846;51.528;5.076;2023-03-18T09:37:05;100498.34;;;9.84;80.38
60974;BME280;46846;51.528;5.076;2023-03-18T09:39:31;100495.63;;;9.85;80.39
60974;BME280;46846;51.528;5.076;2023-03-18T09:44:59;100493.56;;;9.94;80.90
60974;BME280;46846;51.528;5.076;2023-03-18T09:57:45;100499.97;;;10.12;80.59
60974;BME280;46846;51.528;5.076;2023-03-18T10:00:22;100500.78;;;10.14;80.50
60974;BME280;46846;51.528;5.076;2023-03-18T10:03:16;100500.72;;;10.16;80.32
60974;BME280;46846;51.528;5.076;2023-03-18T10:05:51;100509.44;;;10.19;80.34
60974;BME280;46846;51.528;5.076;2023-03-18T10:11:36;100509.25;;;10.24;80.39
60974;BME280;46846;51.528;5.076;2023-03-18T10:16:47;100515.25;;;10.29;80.32
60974;BME280;46846;51.528;5.076;2023-03-18T10:19:15;100517.63;;;10.37;79.88
60974;BME280;46846;51.528;5.076;2023-03-18T10:21:43;100510.75;;;10.31;80.72
60974;BME280;46846;51.528;5.076;2023-03-18T10:33:05;100511.03;;;10.47;79.65
60974;BME280;46846;51.528;5.076;2023-03-18T10:38:22;100503.56;;;10.57;78.75
60974;BME280;46846;51.528;5.076;2023-03-18T10:40:49;100504.31;;;10.61;78.02
60974;BME280;46846;51.528;5.076;2023-03-18T10:43:24;100502.34;;;10.66;77.86
60974;BME280;46846;51.528;5.076;2023-03-18T10:46:08;100500.63;;;10.65;78.62
60974;BME280;46846;51.528;5.076;2023-03-18T10:48:47;100509.25;;;10.70;77.65
60974;BME280;46846;51.528;5.076;2023-03-18T10:51:28;100505.63;;;10.73;78.00
60974;BME280;46846;51.528;5.076;2023-03-18T10:56:34;100509.75;;;10.80;77.12
60974;BME280;46846;51.528;5.076;2023-03-18T10:59:00;100514.09;;;10.83;76.82
60974;BME280;46846;51.528;5.076;2023-03-18T11:01:27;100507.84;;;10.84;77.88
60974;BME280;46846;51.528;5.076;2023-03-18T11:04:01;100512.97;;;10.88;77.60
60974;BME280;46846;51.528;5.076;2023-03-18T11:09:11;100521.69;;;10.92;77.74
60974;BME280;46846;51.528;5.076;2023-03-18T11:11:48;100521.78;;;10.90;78.02
60974;BME280;46846;51.528;5.076;2023-03-18T11:14:17;100520.84;;;10.91;78.35
60974;BME280;46846;51.528;5.076;2023-03-18T11:16:56;100521.63;;;10.93;78.21
60974;BME280;46846;51.528;5.076;2023-03-18T11:19:30;100518.03;;;10.94;77.96
60974;BME280;46846;51.528;5.076;2023-03-18T11:24:31;100521.41;;;11.00;77.89
60974;BME280;46846;51.528;5.076;2023-03-18T11:27:01;100517.00;;;10.99;78.58
60974;BME280;46846;51.528;5.076;2023-03-18T11:29:32;100521.41;;;11.00;78.51
60974;BME280;46846;51.528;5.076;2023-03-18T11:32:00;100522.13;;;11.03;77.96
60974;BME280;46846;51.528;5.076;2023-03-18T11:34:29;100524.78;;;11.03;78.20
60974;BME280;46846;51.528;5.076;2023-03-18T11:36:57;100527.41;;;11.05;77.77
60974;BME280;46846;51.528;5.076;2023-03-18T11:39:28;100528.94;;;11.11;76.69
60974;BME280;46846;51.528;5.076;2023-03-18T11:41:56;100530.72;;;11.10;77.58
60974;BME280;46846;51.528;5.076;2023-03-18T11:44:32;100529.00;;;11.09;78.63
60974;BME280;46846;51.528;5.076;2023-03-18T11:47:04;100536.03;;;11.10;78.00
60974;BME280;46846;51.528;5.076;2023-03-18T11:49:31;100536.13;;;11.08;78.65
60974;BME280;46846;51.528;5.076;2023-03-18T12:05:45;100540.38;;;11.13;79.63
60974;BME280;46846;51.528;5.076;2023-03-18T12:08:18;100540.31;;;11.14;79.73
60974;BME280;46846;51.528;5.076;2023-03-18T12:11:18;100540.31;;;11.14;79.34
60974;BME280;46846;51.528;5.076;2023-03-18T12:13:51;100542.06;;;11.15;79.75
60974;BME280;46846;51.528;5.076;2023-03-18T12:16:32;100538.50;;;11.15;79.24
60974;BME280;46846;51.528;5.076;2023-03-18T12:19:21;100539.38;;;11.15;79.78
60974;BME280;46846;51.528;5.076;2023-03-18T12:21:55;100543.09;;;11.11;80.63
60974;BME280;46846;51.528;5.076;2023-03-18T12:30:18;100538.41;;;11.18;79.93
60974;BME280;46846;51.528;5.076;2023-03-18T12:46:46;100540.56;;;11.30;79.75
60974;BME280;46846;51.528;5.076;2023-03-18T12:49:20;100533.41;;;11.31;79.71
60974;BME280;46846;51.528;5.076;2023-03-18T12:51:49;100524.44;;;11.33;79.48
60974;BME280;46846;51.528;5.076;2023-03-18T12:54:22;100522.63;;;11.34;79.38
60974;BME280;46846;51.528;5.076;2023-03-18T12:57:03;100519.84;;;11.37;79.24
60974;BME280;46846;51.528;5.076;2023-03-18T12:59:41;100514.47;;;11.39;79.06
60974;BME280;46846;51.528;5.076;2023-03-18T13:02:37;100520.56;;;11.41;79.79
60974;BME280;46846;51.528;5.076;2023-03-18T13:05:12;100516.09;;;11.41;79.52
60974;BME280;46846;51.528;5.076;2023-03-18T13:07:49;100515.19;;;11.42;79.85
60974;BME280;46846;51.528;5.076;2023-03-18T13:10:21;100512.53;;;11.42;79.81
60974;BME280;46846;51.528;5.076;2023-03-18T13:12:50;100512.38;;;11.45;79.33
60974;BME280;46846;51.528;5.076;2023-03-18T13:15:33;100515.09;;;11.44;80.09
60974;BME280;46846;51.528;5.076;2023-03-18T13:20:42;100500.84;;;11.45;79.83
60974;BME280;46846;51.528;5.076;2023-03-18T13:23:15;100510.44;;;11.49;78.97
60974;BME280;46846;51.528;5.076;2023-03-18T13:25:58;100507.94;;;11.46;79.90
60974;BME280;46846;51.528;5.076;2023-03-18T13:29:01;100505.72;;;11.35;80.73
60974;BME280;46846;51.528;5.076;2023-03-18T13:32:02;100503.81;;;11.39;80.05
60974;BME280;46846;51.528;5.076;2023-03-18T13:37:26;100504.31;;;11.47;79.60
60974;BME280;46846;51.528;5.076;2023-03-18T13:42:37;100499.78;;;11.49;78.92
60974;BME280;46846;51.528;5.076;2023-03-18T13:47:37;100500.72;;;11.48;79.53
60974;BME280;46846;51.528;5.076;2023-03-18T13:50:38;100509.66;;;11.47;79.51
60974;BME280;46846;51.528;5.076;2023-03-18T13:52:58;100504.19;;;11.50;79.15
60974;BME280;46846;51.528;5.076;2023-03-18T13:55:41;100497.72;;;11.56;79.11
60974;BME280;46846;51.528;5.076;2023-03-18T13:58:22;100496.72;;;11.58;78.56
60974;BME280;46846;51.528;5.076;2023-03-18T14:13:58;100477.38;;;11.74;77.79
60974;BME280;46846;51.528;5.076;2023-03-18T14:19:05;100471.91;;;11.77;77.11
60974;BME280;46846;51.528;5.076;2023-03-18T14:21:43;100469.25;;;11.77;78.12
60974;BME280;46846;51.528;5.076;2023-03-18T14:29:42;100455.84;;;11.79;78.95
60974;BME280;46846;51.528;5.076;2023-03-18T14:40:49;100460.16;;;11.81;79.02
60974;BME280;46846;51.528;5.076;2023-03-18T14:43:22;100450.22;;;11.85;75.99
60974;BME280;46846;51.528;5.076;2023-03-18T14:45:50;100446.50;;;11.89;75.45
60974;BME280;46846;51.528;5.076;2023-03-18T14:48:20;100449.22;;;11.87;78.32
60974;BME280;46846;51.528;5.076;2023-03-18T14:50:52;100450.81;;;11.92;77.31
60974;BME280;46846;51.528;5.076;2023-03-18T14:55:59;100448.94;;;11.94;76.66
60974;BME280;46846;51.528;5.076;2023-03-18T14:58:27;100441.66;;;11.97;73.38